createdAt,value
2019-05-25T00:01:35.900Z,20.30
2019-05-25T00:04:24.312Z,20.30
2019-05-25T00:07:12.983Z,20.30
2019-05-25T00:10:01.420Z,20.30
2019-05-25T00:12:50.280Z,20.30
2019-05-25T00:15:38.676Z,20.30
2019-05-25T00:18:28.096Z,20.30
2019-05-25T00:21:16.688Z,20.30
2019-05-25T00:24:12.192Z,20.20
2019-05-25T00:26:55.423Z,20.20
2019-05-25T00:29:44.041Z,20.20
2019-05-25T00:32:32.324Z,20.20
2019-05-25T00:35:20.913Z,20.10
2019-05-25T00:38:09.569Z,20.20
2019-05-25T00:40:57.910Z,20.10
2019-05-25T00:43:46.162Z,20.10
2019-05-25T00:46:34.592Z,20.10
2019-05-25T00:49:23.277Z,20.10
2019-05-25T00:52:11.621Z,20.10
2019-05-25T00:55:00.387Z,20.10
2019-05-25T00:57:48.758Z,20.10
2019-05-25T01:00:38.130Z,20.00
2019-05-25T01:03:26.668Z,20.00
2019-05-25T01:06:15.146Z,20.00
2019-05-25T01:09:05.324Z,20.00
2019-05-25T01:11:53.727Z,20.00
2019-05-25T01:14:42.384Z,20.00
2019-05-25T01:17:30.993Z,20.00
2019-05-25T01:20:20.454Z,19.90
2019-05-25T01:23:08.842Z,19.90
2019-05-25T01:25:57.046Z,19.90
2019-05-25T01:28:45.788Z,19.90
2019-05-25T01:31:34.108Z,19.90
2019-05-25T01:34:22.323Z,19.90
2019-05-25T01:37:10.736Z,19.90
2019-05-25T01:39:59.396Z,19.90
2019-05-25T01:42:47.779Z,19.90
2019-05-25T01:45:36.389Z,19.80
2019-05-25T01:48:25.017Z,19.80
2019-05-25T01:51:13.492Z,19.80
2019-05-25T01:54:02.265Z,19.80
2019-05-25T01:56:50.586Z,19.80
2019-05-25T01:59:39.207Z,19.80
2019-05-25T02:02:27.735Z,19.80
2019-05-25T02:05:17.339Z,19.80
2019-05-25T02:08:05.549Z,19.80
2019-05-25T02:10:54.082Z,19.70
2019-05-25T02:13:42.514Z,19.70
2019-05-25T02:16:31.665Z,19.70
2019-05-25T02:19:20.120Z,19.70
2019-05-25T02:22:08.868Z,19.70
2019-05-25T02:24:57.436Z,19.70
2019-05-25T02:27:45.559Z,19.70
2019-05-25T02:30:34.241Z,19.60
2019-05-25T02:33:23.489Z,19.60
2019-05-25T02:36:12.006Z,19.60
2019-05-25T02:39:00.169Z,19.60
2019-05-25T02:41:48.572Z,19.60
2019-05-25T02:44:37.567Z,19.60
2019-05-25T02:47:25.881Z,19.60
2019-05-25T02:50:14.220Z,19.60
2019-05-25T02:53:02.678Z,19.60
2019-05-25T02:55:50.932Z,19.50
2019-05-25T02:58:39.146Z,19.50
2019-05-25T03:01:27.434Z,19.50
2019-05-25T03:04:15.797Z,19.50
2019-05-25T03:07:05.664Z,19.50
2019-05-25T03:09:56.202Z,19.50
2019-05-25T03:12:45.745Z,19.50
2019-05-25T03:15:34.278Z,19.50
2019-05-25T03:18:22.666Z,19.40
2019-05-25T03:21:10.984Z,19.40
2019-05-25T03:23:59.088Z,19.40
2019-05-25T03:26:47.314Z,19.40
2019-05-25T03:29:35.764Z,19.40
2019-05-25T03:32:24.395Z,19.40
2019-05-25T03:35:13.408Z,19.40
2019-05-25T03:38:02.160Z,19.30
2019-05-25T03:40:50.865Z,19.30
2019-05-25T03:43:39.804Z,19.30
2019-05-25T03:46:28.020Z,19.30
2019-05-25T03:49:16.672Z,19.30
2019-05-25T03:52:05.012Z,19.30
2019-05-25T03:54:54.173Z,19.30
2019-05-25T03:57:42.475Z,19.30
2019-05-25T04:00:33.368Z,19.30
2019-05-25T04:03:21.903Z,19.30
2019-05-25T04:06:10.525Z,19.30
2019-05-25T04:08:58.813Z,19.20
2019-05-25T04:11:47.152Z,19.20
2019-05-25T04:14:36.281Z,19.20
2019-05-25T04:17:24.738Z,19.20
2019-05-25T04:20:13.213Z,19.20
2019-05-25T04:23:01.751Z,19.20
2019-05-25T04:25:50.097Z,19.20
2019-05-25T04:28:38.996Z,19.20
2019-05-25T04:31:27.205Z,19.20
2019-05-25T04:34:15.690Z,19.10
2019-05-25T04:37:04.429Z,19.10
2019-05-25T04:39:53.004Z,19.10
2019-05-25T04:42:41.209Z,19.10
2019-05-25T04:45:29.669Z,19.10
2019-05-25T04:48:17.886Z,19.10
2019-05-25T04:51:06.915Z,19.10
2019-05-25T04:53:55.613Z,19.10
2019-05-25T04:56:44.238Z,19.10
2019-05-25T04:59:32.541Z,19.10
2019-05-25T05:02:20.627Z,19.00
2019-05-25T05:05:10.339Z,19.00
2019-05-25T05:07:58.761Z,19.00
2019-05-25T05:10:47.401Z,19.00
2019-05-25T05:13:35.712Z,19.00
2019-05-25T05:16:23.892Z,19.00
2019-05-25T05:19:12.781Z,19.00
2019-05-25T05:22:00.993Z,19.00
2019-05-25T05:24:49.584Z,19.00
2019-05-25T05:27:38.056Z,19.00
2019-05-25T05:30:34.837Z,19.00
2019-05-25T05:33:23.501Z,19.00
2019-05-25T05:36:13.274Z,19.00
2019-05-25T05:39:02.288Z,18.90
2019-05-25T05:41:52.919Z,18.90
2019-05-25T05:44:44.327Z,19.00
2019-05-25T05:47:36.010Z,19.00
2019-05-25T05:50:25.391Z,18.90
2019-05-25T05:53:15.178Z,19.00
2019-05-25T05:56:05.841Z,19.00
2019-05-25T05:58:53.864Z,19.00
2019-05-25T06:01:41.989Z,19.00
2019-05-25T06:04:30.414Z,19.00
2019-05-25T06:07:18.922Z,19.00
2019-05-25T06:10:08.887Z,19.00
2019-05-25T06:12:57.229Z,19.00
2019-05-25T06:15:45.899Z,19.00
2019-05-25T06:18:34.218Z,19.00
2019-05-25T06:21:22.250Z,19.00
2019-05-25T06:24:10.638Z,19.00
2019-05-25T06:26:59.047Z,19.00
2019-05-25T06:29:47.345Z,19.10
2019-05-25T06:32:35.953Z,19.10
2019-05-25T06:35:24.647Z,19.10
2019-05-25T06:38:13.335Z,19.10
2019-05-25T06:41:01.768Z,19.20
2019-05-25T06:43:50.430Z,19.20
2019-05-25T06:46:39.848Z,19.20
2019-05-25T06:49:28.448Z,19.20
2019-05-25T06:52:17.380Z,19.30
2019-05-25T06:55:07.468Z,19.30
2019-05-25T06:57:56.203Z,19.40
2019-05-25T07:00:45.646Z,19.40
2019-05-25T07:03:34.575Z,19.40
2019-05-25T07:06:23.705Z,19.40
2019-05-25T07:09:12.427Z,19.40
2019-05-25T07:12:01.475Z,19.50
2019-05-25T07:14:49.931Z,19.50
2019-05-25T07:17:38.983Z,19.40
2019-05-25T07:20:27.528Z,19.50
2019-05-25T07:23:15.642Z,19.50
2019-05-25T07:26:03.699Z,19.50
2019-05-25T07:28:52.080Z,19.50
2019-05-25T07:31:40.365Z,19.50
2019-05-25T07:34:29.336Z,19.50
2019-05-25T07:37:18.034Z,19.50
2019-05-25T07:40:09.513Z,19.50
2019-05-25T07:42:59.300Z,19.50
2019-05-25T07:45:48.228Z,19.50
2019-05-25T07:48:36.406Z,19.50
2019-05-25T07:51:25.090Z,19.50
2019-05-25T07:54:13.774Z,19.50
2019-05-25T07:57:02.481Z,19.50
2019-05-25T07:59:50.879Z,19.50
2019-05-25T08:02:40.163Z,19.50
2019-05-25T08:05:28.751Z,19.60
2019-05-25T08:08:17.284Z,19.60
2019-05-25T08:11:05.781Z,19.70
2019-05-25T08:13:53.919Z,19.70
2019-05-25T08:16:43.308Z,19.70
2019-05-25T08:19:33.347Z,19.70
2019-05-25T08:22:21.896Z,19.90
2019-05-25T08:24:53.148Z,20.00
2019-05-25T08:27:24.767Z,20.10
2019-05-25T08:29:55.527Z,20.20
2019-05-25T08:32:26.192Z,20.20
2019-05-25T08:35:14.709Z,20.30
2019-05-25T08:38:02.892Z,20.30
2019-05-25T08:40:51.314Z,20.40
2019-05-25T08:43:39.797Z,20.50
2019-05-25T08:46:28.708Z,20.50
2019-05-25T08:49:17.007Z,20.50
2019-05-25T08:52:05.844Z,20.50
2019-05-25T08:54:56.566Z,20.50
2019-05-25T08:57:44.256Z,20.60
2019-05-25T09:00:33.064Z,20.80
2019-05-25T09:03:21.434Z,20.80
2019-05-25T09:06:09.840Z,20.80
2019-05-25T09:08:58.066Z,20.90
2019-05-25T09:11:46.614Z,20.90
2019-05-25T09:14:35.257Z,20.80
2019-05-25T09:17:23.853Z,20.90
2019-05-25T09:20:14.025Z,20.80
2019-05-25T09:23:03.208Z,20.80
2019-05-25T09:25:51.721Z,20.80
2019-05-25T09:28:40.336Z,20.80
2019-05-25T09:31:29.719Z,20.90
2019-05-25T09:34:18.004Z,21.00
2019-05-25T09:37:06.238Z,21.00
2019-05-25T09:39:54.636Z,21.20
2019-05-25T09:42:43.628Z,21.30
2019-05-25T09:45:33.534Z,21.30
2019-05-25T09:48:22.815Z,21.60
2019-05-25T09:51:15.753Z,22.00
2019-05-25T09:54:01.891Z,22.10
2019-05-25T09:56:50.388Z,21.90
2019-05-25T09:59:39.960Z,21.80
2019-05-25T10:02:28.303Z,21.80
2019-05-25T10:05:17.349Z,21.70
2019-05-25T10:08:06.134Z,21.80
2019-05-25T10:10:54.659Z,21.80
2019-05-25T10:13:42.786Z,21.80
2019-05-25T10:16:31.564Z,21.70
2019-05-25T10:19:19.674Z,21.70
2019-05-25T10:22:08.071Z,21.60
2019-05-25T10:24:56.522Z,21.60
2019-05-25T10:27:45.224Z,21.70
2019-05-25T10:30:34.104Z,21.70
2019-05-25T10:33:22.303Z,21.80
2019-05-25T10:36:10.842Z,21.80
2019-05-25T10:38:59.119Z,21.80
2019-05-25T10:41:47.302Z,21.80
2019-05-25T10:44:35.480Z,21.80
2019-05-25T10:47:23.817Z,21.80
2019-05-25T10:50:14.374Z,21.80
2019-05-25T10:53:03.093Z,21.80
2019-05-25T10:55:51.303Z,21.80
2019-05-25T10:58:39.549Z,21.90
2019-05-25T11:01:27.701Z,21.80
2019-05-25T11:04:16.639Z,21.90
2019-05-25T11:07:05.417Z,21.90
2019-05-25T11:09:53.926Z,21.90
2019-05-25T11:12:53.878Z,21.90
2019-05-25T11:15:46.386Z,21.90
2019-05-25T11:18:34.921Z,21.90
2019-05-25T11:21:23.492Z,21.90
2019-05-25T11:24:12.014Z,22.00
2019-05-25T11:27:00.706Z,22.00
2019-05-25T11:29:49.308Z,22.00
2019-05-25T11:32:38.691Z,22.00
2019-05-25T11:35:27.651Z,22.00
2019-05-25T11:38:16.223Z,22.00
2019-05-25T11:41:05.025Z,22.00
2019-05-25T11:43:53.939Z,22.00
2019-05-25T11:46:42.173Z,22.10
2019-05-25T11:49:30.618Z,22.10
2019-05-25T11:52:19.043Z,22.10
2019-05-25T11:55:08.688Z,22.10
2019-05-25T11:57:56.979Z,22.10
2019-05-25T12:00:45.694Z,22.10
2019-05-25T12:03:34.226Z,22.10
2019-05-25T12:06:22.489Z,22.10
2019-05-25T12:09:11.170Z,22.10
2019-05-25T12:11:59.633Z,22.10
2019-05-25T12:14:49.476Z,22.10
2019-05-25T12:17:38.299Z,22.10
2019-05-25T12:20:27.556Z,22.10
2019-05-25T12:23:15.973Z,22.10
2019-05-25T12:26:04.612Z,22.10
2019-05-25T12:28:53.110Z,22.20
2019-05-25T12:31:41.270Z,22.30
2019-05-25T12:34:30.487Z,22.30
2019-05-25T12:37:18.883Z,22.40
2019-05-25T12:40:08.781Z,22.40
2019-05-25T12:42:57.091Z,22.40
2019-05-25T12:45:45.683Z,22.50
2019-05-25T12:48:34.232Z,22.50
2019-05-25T12:51:22.814Z,22.50
2019-05-25T12:54:11.385Z,22.50
2019-05-25T12:57:02.736Z,22.50
2019-05-25T12:59:49.943Z,22.40
2019-05-25T13:02:39.129Z,22.40
2019-05-25T13:05:34.133Z,22.40
2019-05-25T13:08:17.667Z,22.40
2019-05-25T13:11:09.412Z,22.40
2019-05-25T13:13:55.769Z,22.30
2019-05-25T13:16:44.459Z,22.40
2019-05-25T13:19:32.774Z,22.30
2019-05-25T13:22:21.145Z,22.40
2019-05-25T13:25:10.563Z,22.40
2019-05-25T13:27:59.653Z,22.40
2019-05-25T13:30:47.789Z,22.40
2019-05-25T13:33:36.260Z,22.40
2019-05-25T13:36:25.018Z,22.40
2019-05-25T13:39:13.598Z,22.40
2019-05-25T13:42:01.870Z,22.30
2019-05-25T13:44:50.386Z,22.30
2019-05-25T13:47:38.939Z,22.30
2019-05-25T13:50:27.259Z,22.30
2019-05-25T13:53:15.806Z,22.30
2019-05-25T13:56:04.667Z,22.20
2019-05-25T13:58:53.196Z,22.20
2019-05-25T14:01:41.560Z,22.20
2019-05-25T14:04:30.119Z,22.10
2019-05-25T14:07:18.743Z,22.10
2019-05-25T14:10:09.058Z,22.10
2019-05-25T14:12:57.248Z,22.10
2019-05-25T14:15:46.087Z,22.00
2019-05-25T14:18:34.397Z,22.00
2019-05-25T14:21:22.662Z,22.00
2019-05-25T14:24:11.496Z,22.00
2019-05-25T14:27:00.794Z,22.00
2019-05-25T14:29:49.307Z,22.00
2019-05-25T14:32:38.918Z,22.00
2019-05-25T14:35:27.376Z,22.00
2019-05-25T14:38:15.939Z,22.00
2019-05-25T14:41:04.438Z,22.00
2019-05-25T14:43:52.957Z,22.00
2019-05-25T14:46:42.410Z,22.00
2019-05-25T14:49:30.939Z,22.00
2019-05-25T14:52:19.071Z,21.90
2019-05-25T14:55:09.154Z,21.90
2019-05-25T14:57:57.323Z,21.90
2019-05-25T15:00:46.894Z,22.00
2019-05-25T15:03:35.516Z,21.90
2019-05-25T15:06:24.230Z,21.90
2019-05-25T15:09:12.639Z,21.90
2019-05-25T15:12:01.669Z,21.90
2019-05-25T15:14:50.620Z,21.90
2019-05-25T15:17:39.146Z,21.90
2019-05-25T15:20:27.863Z,21.90
2019-05-25T15:23:16.375Z,21.90
2019-05-25T15:26:05.463Z,21.90
2019-05-25T15:28:54.569Z,21.90
2019-05-25T15:31:43.226Z,21.90
2019-05-25T15:34:32.247Z,21.90
2019-05-25T15:37:21.660Z,21.90
2019-05-25T15:40:14.149Z,21.90
2019-05-25T15:43:02.343Z,21.90
2019-05-25T15:45:50.954Z,21.80
2019-05-25T15:48:39.224Z,21.80
2019-05-25T15:51:29.480Z,21.80
2019-05-25T15:54:17.949Z,21.80
2019-05-25T15:57:06.235Z,21.80
2019-05-25T15:59:54.763Z,21.80
2019-05-25T16:02:43.110Z,21.80
2019-05-25T16:05:32.029Z,21.80
2019-05-25T16:08:21.347Z,21.80
2019-05-25T16:11:09.636Z,21.70
2019-05-25T16:13:58.519Z,21.80
2019-05-25T16:16:47.333Z,21.70
2019-05-25T16:19:36.159Z,21.70
2019-05-25T16:22:24.780Z,21.70
2019-05-25T16:25:13.480Z,21.70
2019-05-25T16:28:02.072Z,21.80
2019-05-25T16:30:50.572Z,21.80
2019-05-25T16:33:38.894Z,21.80
2019-05-25T16:36:27.356Z,21.80
2019-05-25T16:39:15.671Z,21.80
2019-05-25T16:42:04.588Z,21.80
2019-05-25T16:44:52.792Z,21.80
2019-05-25T16:47:43.094Z,21.90
2019-05-25T16:50:32.251Z,21.90
2019-05-25T16:53:20.553Z,21.90
2019-05-25T16:56:09.069Z,22.00
2019-05-25T16:58:57.654Z,21.90
2019-05-25T17:01:48.592Z,21.90
2019-05-25T17:04:36.320Z,21.90
2019-05-25T17:07:25.063Z,21.90
2019-05-25T17:10:14.261Z,21.90
2019-05-25T17:13:02.935Z,21.90
2019-05-25T17:15:51.512Z,22.00
2019-05-25T17:18:40.340Z,21.90
2019-05-25T17:21:28.928Z,21.90
2019-05-25T17:24:17.379Z,21.90
2019-05-25T17:27:05.779Z,21.90
2019-05-25T17:29:54.083Z,21.90
2019-05-25T17:32:42.776Z,21.90
2019-05-25T17:35:31.033Z,21.90
2019-05-25T17:38:19.556Z,21.90
2019-05-25T17:41:07.846Z,21.90
2019-05-25T17:43:56.383Z,21.90
2019-05-25T17:46:45.053Z,21.90
2019-05-25T17:49:33.703Z,21.80
2019-05-25T17:52:23.044Z,21.80
2019-05-25T17:55:12.743Z,21.80
2019-05-25T17:58:02.708Z,21.70
2019-05-25T18:00:51.247Z,21.80
2019-05-25T18:03:39.822Z,21.70
2019-05-25T18:06:29.364Z,21.70
2019-05-25T18:09:17.469Z,21.70
2019-05-25T18:12:05.788Z,21.70
2019-05-25T18:14:54.093Z,21.70
2019-05-25T18:17:42.450Z,21.60
2019-05-25T18:20:30.905Z,21.60
2019-05-25T18:23:19.370Z,21.60
2019-05-25T18:26:08.591Z,21.60
2019-05-25T18:28:56.839Z,21.60
2019-05-25T18:31:44.980Z,21.60
2019-05-25T18:34:33.440Z,21.50
2019-05-25T18:37:21.642Z,21.50
2019-05-25T18:39:52.646Z,21.50
2019-05-25T18:42:40.921Z,21.50
2019-05-25T18:45:29.777Z,21.50
2019-05-25T18:48:18.194Z,21.50
2019-05-25T18:51:06.507Z,21.50
2019-05-25T18:53:54.870Z,21.40
2019-05-25T18:56:43.264Z,21.40
2019-05-25T18:59:32.053Z,21.40
2019-05-25T19:02:20.713Z,21.40
2019-05-25T19:05:09.546Z,21.30
2019-05-25T19:07:57.836Z,21.30
2019-05-25T19:10:47.061Z,21.30
2019-05-25T19:13:35.503Z,21.30
2019-05-25T19:16:24.709Z,21.30
2019-05-25T19:19:13.036Z,21.30
2019-05-25T19:22:01.504Z,21.20
2019-05-25T19:24:49.996Z,21.20
2019-05-25T19:27:38.783Z,21.20
2019-05-25T19:30:27.524Z,21.20
2019-05-25T19:33:15.945Z,21.20
2019-05-25T19:36:04.232Z,21.20
2019-05-25T19:38:52.761Z,21.20
2019-05-25T19:41:41.553Z,21.20
2019-05-25T19:44:30.285Z,21.30
2019-05-25T19:47:18.927Z,21.20
2019-05-25T19:50:09.706Z,21.30
2019-05-25T19:52:57.875Z,21.30
2019-05-25T19:55:46.424Z,21.30
2019-05-25T19:58:34.776Z,21.30
2019-05-25T20:01:23.260Z,21.30
2019-05-25T20:04:13.049Z,21.30
2019-05-25T20:07:01.280Z,21.30
2019-05-25T20:09:49.854Z,21.30
2019-05-25T20:12:38.579Z,21.30
2019-05-25T20:15:27.846Z,21.30
2019-05-25T20:18:16.031Z,21.30
2019-05-25T20:21:04.667Z,21.30
2019-05-25T20:23:53.666Z,21.30
2019-05-25T20:26:42.329Z,21.30
2019-05-25T20:29:30.781Z,21.30
2019-05-25T20:32:19.098Z,21.30
2019-05-25T20:35:08.250Z,21.30
2019-05-25T20:37:57.302Z,21.30
2019-05-25T20:40:28.030Z,21.20
2019-05-25T20:43:16.585Z,21.30
2019-05-25T20:46:05.009Z,21.20
2019-05-25T20:48:53.074Z,21.20
2019-05-25T20:51:41.311Z,21.20
2019-05-25T20:54:29.507Z,21.20
2019-05-25T20:57:18.156Z,21.20
2019-05-25T21:00:08.202Z,21.20
2019-05-25T21:03:05.911Z,21.10
2019-05-25T21:05:50.614Z,21.10
2019-05-25T21:08:36.887Z,21.10
2019-05-25T21:11:25.454Z,21.10
2019-05-25T21:14:14.876Z,21.10
2019-05-25T21:17:03.482Z,21.10
2019-05-25T21:19:52.261Z,21.10
2019-05-25T21:22:40.658Z,21.00
2019-05-25T21:25:29.356Z,21.00
2019-05-25T21:28:17.917Z,21.00
2019-05-25T21:31:06.151Z,21.00
2019-05-25T21:33:54.561Z,21.00
2019-05-25T21:36:43.407Z,21.00
2019-05-25T21:39:33.299Z,20.90
2019-05-25T21:42:22.147Z,20.90
2019-05-25T21:45:12.333Z,20.90
2019-05-25T21:48:01.626Z,20.90
2019-05-25T21:50:49.816Z,20.80
2019-05-25T21:53:38.491Z,20.80
2019-05-25T21:56:26.804Z,20.80
2019-05-25T21:59:15.094Z,20.80
2019-05-25T22:02:03.983Z,20.80
2019-05-25T22:04:53.196Z,20.80
2019-05-25T22:07:41.912Z,20.70
2019-05-25T22:10:30.200Z,20.70
2019-05-25T22:13:27.842Z,20.70
2019-05-25T22:16:09.280Z,20.70
2019-05-25T22:18:57.814Z,20.60
2019-05-25T22:21:46.355Z,20.60
2019-05-25T22:24:34.997Z,20.60
2019-05-25T22:27:23.684Z,20.60
2019-05-25T22:30:13.243Z,20.50
2019-05-25T22:33:01.972Z,20.50
2019-05-25T22:35:50.568Z,20.50
2019-05-25T22:38:39.746Z,20.50
2019-05-25T22:41:13.372Z,20.50
2019-05-25T22:44:02.054Z,20.40
2019-05-25T22:46:50.402Z,20.50
2019-05-25T22:49:39.082Z,20.40
2019-05-25T22:52:27.587Z,20.40
2019-05-25T22:55:17.786Z,20.40
2019-05-25T22:58:07.120Z,20.30
2019-05-25T23:00:55.355Z,20.30
2019-05-25T23:03:43.786Z,20.30
2019-05-25T23:06:32.247Z,20.30
2019-05-25T23:09:20.928Z,20.30
2019-05-25T23:12:09.273Z,20.30
2019-05-25T23:14:57.698Z,20.20
2019-05-25T23:17:46.398Z,20.20
2019-05-25T23:20:36.617Z,20.20
2019-05-25T23:23:24.967Z,20.20
2019-05-25T23:26:13.233Z,20.20
2019-05-25T23:29:01.449Z,20.10
2019-05-25T23:31:51.353Z,20.10
2019-05-25T23:34:39.693Z,20.10
2019-05-25T23:37:27.816Z,20.10
2019-05-25T23:40:18.212Z,20.00
2019-05-25T23:43:06.874Z,20.00
2019-05-25T23:45:55.664Z,20.00
2019-05-25T23:48:44.152Z,20.00
2019-05-25T23:51:33.083Z,20.00
2019-05-25T23:54:21.326Z,20.00
2019-05-25T23:57:09.407Z,19.90
2019-05-25T23:59:57.925Z,19.90
